Ana Sayfa
METAR-TAF:

METAR-TAF

Havaalanları :

Vineyard Haven, Massachusetts, Amerika Birleşik Devletleri

Enlem: 41-23-32N, Boylam: 070-37-00W, yükseklik: 20 m

Güncel hava durumu gözlemi

Rapor saat 19:53 UTC de 1 saat ve 1 dakika önce yapıldı.
Rüzgar güney/güneybatıdan 15 kt ve 22 kt'a kadar ani rüzgarlar
Sıcaklık 19°C
Nem 83%
Basınç 1012 hPa
Görüş mesafesi: 14.5 km
Açık gökyüzü

METAR: KMVY 161953Z 21015G22KT 9SM CLR 19/16 A2988 RMK AO2 SLP119 T01940161

Saat: 16:54 (20:54 UTC)


TAF: eksik

4.000'den fazla havaalanı için hava durumu gözlemleri ve tahminleri (METAR ve TAF raporları).

Kullanılabilir istasyonlar harita üzerinde sarı ve kırmızı noktalarla gösterilir.

İstasyonun adını görmek için fareyi noktanın üzerinde gezdirin.

Sonrasında hava gözlem ve tahminlerini görmek için tıklayın.

Haritayı değiştirmek için: yaklaştırmak için siyah artı işaretli yeşil düğmeye ve uzaklaştırmak için de eksi işaretli düğmeye hızla tıklayın; bitişik haritalar için yeşil okları kullanın.


METAR-TAF: